Miami, FL (33175)

4:19 PM EDT en Septiembre 01, 2015 (GMT -0400)
Southwest Miami-Dade | | Change Station
CLOSE
Current Station
Estación meteorológica personal
Location: Miami, FL
Altura: 26 ft
Estaciones meteorológicas cercanas

Alt 26 ft 25.76 °N, 80.44 °W | Updated 6 minutes ago

Despejado
Despejado
97.9 ° F
Sensación térmica 114 ° F
N
3.2
Viento Variable Viento desde Norte

Hoy
Alta -- | Baja -- ° F
--% Posibilidad de precipitaciones
Ayer
Alta -- | Baja -- ° F
Precip. -- pul
7:01 AM 7:41 PM
Gibosa menguante, 86% visible
Presión 30.03 pul
Visibilidad 10.0 Millas
Nubes Baja 3400 ft
Índice de calor 114 ° F
Punto de rocío 77 ° F
Humedad 52%
Precipitaciones 0.00 pul
Espesor de la nieve No disponible.
UV 9 de una escala de 12
Polen 4.40 de una escala de 12
Calidad del aire No disponible.
Flu Activity No disponible.
METAR KTMB 011953Z 12010KT 10SM FEW034 32/25 A3003 RMK AO2 LTG DSNT W AND NW SLP168 T03220250
Presión 30.03 pul
Visibilidad 10.0 Millas
Nubes Baja 3400 ft
Índice de calor 114 ° F
Punto de rocío 77 ° F
Humedad 52%
Precipitaciones 0.00 pul
Espesor de la nieve No disponible.
UV 9 de una escala de 12
Polen 4.40 de una escala de 12
Calidad del aire No disponible.
Flu Activity No disponible.
METAR KTMB 011953Z 12010KT 10SM FEW034 32/25 A3003 RMK AO2 LTG DSNT W AND NW SLP168 T03220250
Nowcast | as of 2:26 PM EDT on September 1, 2015

Scattered showers and thunderstorms will continue to develop through this afternoon. Gusty winds to 40 mph, frequent cloud to ground lightning and heavy downpours are possible with the strongest storms. Most activity is expected to move to the north northwest around 10 mph. Potentially, a half inch of rain could fall in a very short period of time.

×

10-Day Weather Forecast

×

Almanac

Astronomía

Sep. 01, 2015 Salida Puesta
Hora real
Crepúsculo civil
Crepúsculo náutico
Crepúsculo astronómico
Luna
Horas de luz
Horas de luz
Tomorrow will be .
, % of the Moon is Illuminated

Extremos de hoy

Máximos del estado Bajos del estado

Community

WunderPhotos

Upload Photos

1,851,605 ¡fotos cargadas!

WunderBlogs® & News

Nearby

Calidad del aire

  Calidad del aire Índice AQ Contaminante
Not available.

Grosos de nieve

Estación Profundido Altura

Actividad de terremotos

Ciudad Distance Mag. Tiempo y dato
Magnitud mínima muestra es 2,5.

Temperaturas de aguas costeras

Lugar Temperatura

Stations

Estaciones meteorológicas cercanas

Ubicación de la estación Temp. Vientos helados Punto de rocío Humedad Viento Precip. Alt Actualizado Tipo